sensor_id;sensor_type;location;lat;lon;timestamp;P1;durP1;ratioP1;P2;durP2;ratioP2
35056;SDS011;21241;51.828;19.574;2022-08-07T00:00:35;3.90;;;2.50;;
35056;SDS011;21241;51.828;19.574;2022-08-07T00:03:09;2.60;;;2.40;;
35056;SDS011;21241;51.828;19.574;2022-08-07T00:05:37;4.00;;;2.60;;
35056;SDS011;21241;51.828;19.574;2022-08-07T00:08:05;3.10;;;2.80;;
35056;SDS011;21241;51.828;19.574;2022-08-07T00:10:34;3.00;;;2.80;;
35056;SDS011;21241;51.828;19.574;2022-08-07T00:13:15;4.30;;;2.40;;
35056;SDS011;21241;51.828;19.574;2022-08-07T00:15:53;3.70;;;2.70;;
35056;SDS011;21241;51.828;19.574;2022-08-07T00:18:22;3.60;;;3.00;;
35056;SDS011;21241;51.828;19.574;2022-08-07T00:20:53;3.20;;;2.80;;
35056;SDS011;21241;51.828;19.574;2022-08-07T00:23:35;5.30;;;3.10;;
35056;SDS011;21241;51.828;19.574;2022-08-07T00:26:06;3.10;;;2.70;;
35056;SDS011;21241;51.828;19.574;2022-08-07T00:28:58;5.00;;;2.70;;
35056;SDS011;21241;51.828;19.574;2022-08-07T00:31:26;3.90;;;2.60;;
35056;SDS011;21241;51.828;19.574;2022-08-07T00:34:07;2.60;;;2.40;;
35056;SDS011;21241;51.828;19.574;2022-08-07T00:36:37;3.80;;;2.90;;
35056;SDS011;21241;51.828;19.574;2022-08-07T00:39:11;3.90;;;2.70;;
35056;SDS011;21241;51.828;19.574;2022-08-07T00:41:49;3.10;;;2.80;;
35056;SDS011;21241;51.828;19.574;2022-08-07T00:44:32;3.80;;;3.00;;
35056;SDS011;21241;51.828;19.574;2022-08-07T00:47:01;3.20;;;3.00;;
35056;SDS011;21241;51.828;19.574;2022-08-07T00:49:33;3.00;;;2.70;;
35056;SDS011;21241;51.828;19.574;2022-08-07T00:52:20;4.50;;;3.30;;
35056;SDS011;21241;51.828;19.574;2022-08-07T00:54:48;3.20;;;2.80;;
35056;SDS011;21241;51.828;19.574;2022-08-07T00:57:23;3.80;;;3.10;;
35056;SDS011;21241;51.828;19.574;2022-08-07T00:59:53;3.80;;;3.00;;
35056;SDS011;21241;51.828;19.574;2022-08-07T01:02:21;3.00;;;2.80;;
35056;SDS011;21241;51.828;19.574;2022-08-07T01:04:56;4.20;;;2.80;;
35056;SDS011;21241;51.828;19.574;2022-08-07T01:07:26;3.30;;;3.00;;
35056;SDS011;21241;51.828;19.574;2022-08-07T01:09:56;4.40;;;3.30;;
35056;SDS011;21241;51.828;19.574;2022-08-07T01:12:34;4.20;;;3.10;;
35056;SDS011;21241;51.828;19.574;2022-08-07T01:15:03;3.30;;;3.10;;
35056;SDS011;21241;51.828;19.574;2022-08-07T01:17:32;4.90;;;3.20;;
35056;SDS011;21241;51.828;19.574;2022-08-07T01:20:04;3.90;;;3.40;;
35056;SDS011;21241;51.828;19.574;2022-08-07T01:22:44;5.20;;;3.50;;
35056;SDS011;21241;51.828;19.574;2022-08-07T01:25:33;5.70;;;4.80;;
35056;SDS011;21241;51.828;19.574;2022-08-07T01:28:21;9.20;;;3.90;;
35056;SDS011;21241;51.828;19.574;2022-08-07T01:30:51;4.70;;;3.30;;
35056;SDS011;21241;51.828;19.574;2022-08-07T01:33:21;5.90;;;4.20;;
35056;SDS011;21241;51.828;19.574;2022-08-07T01:35:57;5.50;;;4.20;;
35056;SDS011;21241;51.828;19.574;2022-08-07T01:38:35;6.10;;;3.50;;
35056;SDS011;21241;51.828;19.574;2022-08-07T01:41:12;6.50;;;5.20;;
35056;SDS011;21241;51.828;19.574;2022-08-07T01:43:55;3.50;;;3.20;;
35056;SDS011;21241;51.828;19.574;2022-08-07T01:46:23;4.40;;;4.00;;
35056;SDS011;21241;51.828;19.574;2022-08-07T01:48:54;4.80;;;4.40;;
35056;SDS011;21241;51.828;19.574;2022-08-07T01:51:26;6.00;;;4.40;;
35056;SDS011;21241;51.828;19.574;2022-08-07T01:54:15;4.90;;;4.40;;
35056;SDS011;21241;51.828;19.574;2022-08-07T01:57:06;4.80;;;4.40;;
35056;SDS011;21241;51.828;19.574;2022-08-07T02:00:07;6.40;;;3.80;;
35056;SDS011;21241;51.828;19.574;2022-08-07T02:05:42;4.60;;;4.20;;
35056;SDS011;21241;51.828;19.574;2022-08-07T02:08:28;5.10;;;4.50;;
35056;SDS011;21241;51.828;19.574;2022-08-07T02:10:56;4.70;;;4.20;;
35056;SDS011;21241;51.828;19.574;2022-08-07T02:13:28;4.50;;;4.00;;
35056;SDS011;21241;51.828;19.574;2022-08-07T02:16:18;4.60;;;4.00;;
35056;SDS011;21241;51.828;19.574;2022-08-07T02:19:04;5.20;;;4.70;;
35056;SDS011;21241;51.828;19.574;2022-08-07T02:21:54;5.20;;;4.80;;
35056;SDS011;21241;51.828;19.574;2022-08-07T02:24:26;4.50;;;3.90;;
35056;SDS011;21241;51.828;19.574;2022-08-07T02:26:59;5.50;;;5.00;;
35056;SDS011;21241;51.828;19.574;2022-08-07T02:29:30;4.70;;;4.30;;
35056;SDS011;21241;51.828;19.574;2022-08-07T02:32:01;6.10;;;5.00;;
35056;SDS011;21241;51.828;19.574;2022-08-07T02:34:30;4.80;;;4.40;;
35056;SDS011;21241;51.828;19.574;2022-08-07T02:37:01;4.90;;;4.30;;
35056;SDS011;21241;51.828;19.574;2022-08-07T02:39:36;4.90;;;4.60;;
35056;SDS011;21241;51.828;19.574;2022-08-07T02:42:27;5.40;;;5.00;;
35056;SDS011;21241;51.828;19.574;2022-08-07T02:44:58;5.00;;;4.50;;
35056;SDS011;21241;51.828;19.574;2022-08-07T02:47:48;5.30;;;4.80;;
35056;SDS011;21241;51.828;19.574;2022-08-07T02:50:16;5.40;;;5.00;;
35056;SDS011;21241;51.828;19.574;2022-08-07T02:52:52;6.90;;;4.80;;
35056;SDS011;21241;51.828;19.574;2022-08-07T02:55:30;5.20;;;4.80;;
35056;SDS011;21241;51.828;19.574;2022-08-07T02:58:21;7.10;;;5.40;;
35056;SDS011;21241;51.828;19.574;2022-08-07T03:00:55;6.90;;;5.00;;
35056;SDS011;21241;51.828;19.574;2022-08-07T03:03:25;6.20;;;5.20;;
35056;SDS011;21241;51.828;19.574;2022-08-07T03:06:15;5.10;;;4.70;;
35056;SDS011;21241;51.828;19.574;2022-08-07T03:09:01;6.50;;;5.40;;
35056;SDS011;21241;51.828;19.574;2022-08-07T03:11:30;5.40;;;4.90;;
35056;SDS011;21241;51.828;19.574;2022-08-07T03:14:06;5.90;;;5.40;;
35056;SDS011;21241;51.828;19.574;2022-08-07T03:16:34;5.30;;;4.90;;
35056;SDS011;21241;51.828;19.574;2022-08-07T03:19:03;5.20;;;4.80;;
35056;SDS011;21241;51.828;19.574;2022-08-07T03:21:32;5.30;;;4.90;;
35056;SDS011;21241;51.828;19.574;2022-08-07T03:24:03;5.10;;;4.70;;
35056;SDS011;21241;51.828;19.574;2022-08-07T03:26:52;6.90;;;6.30;;
35056;SDS011;21241;51.828;19.574;2022-08-07T03:29:29;6.20;;;5.30;;
35056;SDS011;21241;51.828;19.574;2022-08-07T03:32:06;7.90;;;6.50;;
35056;SDS011;21241;51.828;19.574;2022-08-07T03:34:44;7.00;;;6.30;;
35056;SDS011;21241;51.828;19.574;2022-08-07T03:37:33;8.50;;;7.40;;
35056;SDS011;21241;51.828;19.574;2022-08-07T03:40:12;6.80;;;6.20;;
35056;SDS011;21241;51.828;19.574;2022-08-07T03:42:43;6.90;;;6.30;;
35056;SDS011;21241;51.828;19.574;2022-08-07T03:45:12;7.30;;;6.60;;
35056;SDS011;21241;51.828;19.574;2022-08-07T03:48:01;8.20;;;7.50;;
35056;SDS011;21241;51.828;19.574;2022-08-07T03:50:30;6.80;;;6.30;;
35056;SDS011;21241;51.828;19.574;2022-08-07T03:53:01;7.20;;;6.50;;
35056;SDS011;21241;51.828;19.574;2022-08-07T03:55:30;6.60;;;6.00;;
35056;SDS011;21241;51.828;19.574;2022-08-07T03:58:19;6.60;;;6.10;;
35056;SDS011;21241;51.828;19.574;2022-08-07T04:01:08;6.40;;;5.90;;
35056;SDS011;21241;51.828;19.574;2022-08-07T04:03:38;8.70;;;6.70;;
35056;SDS011;21241;51.828;19.574;2022-08-07T04:06:21;6.60;;;6.00;;
35056;SDS011;21241;51.828;19.574;2022-08-07T04:09:10;7.10;;;6.50;;
35056;SDS011;21241;51.828;19.574;2022-08-07T04:11:44;8.00;;;7.20;;
35056;SDS011;21241;51.828;19.574;2022-08-07T04:14:33;8.90;;;6.90;;
35056;SDS011;21241;51.828;19.574;2022-08-07T04:17:11;7.80;;;7.10;;
35056;SDS011;21241;51.828;19.574;2022-08-07T04:19:48;8.10;;;7.30;;
35056;SDS011;21241;51.828;19.574;2022-08-07T04:22:20;7.90;;;7.10;;
35056;SDS011;21241;51.828;19.574;2022-08-07T04:24:54;7.40;;;6.70;;
35056;SDS011;21241;51.828;19.574;2022-08-07T04:27:25;7.30;;;6.70;;
35056;SDS011;21241;51.828;19.574;2022-08-07T04:29:56;7.30;;;6.80;;
35056;SDS011;21241;51.828;19.574;2022-08-07T04:32:43;9.10;;;6.50;;
35056;SDS011;21241;51.828;19.574;2022-08-07T04:35:15;7.20;;;6.00;;
35056;SDS011;21241;51.828;19.574;2022-08-07T04:37:43;6.80;;;6.30;;
35056;SDS011;21241;51.828;19.574;2022-08-07T04:40:31;6.50;;;6.00;;
35056;SDS011;21241;51.828;19.574;2022-08-07T04:43:00;8.10;;;6.80;;
35056;SDS011;21241;51.828;19.574;2022-08-07T04:48:40;6.30;;;5.80;;
35056;SDS011;21241;51.828;19.574;2022-08-07T04:54:32;6.30;;;5.80;;
35056;SDS011;21241;51.828;19.574;2022-08-07T05:00:12;8.00;;;5.60;;
35056;SDS011;21241;51.828;19.574;2022-08-07T05:03:01;5.90;;;5.40;;
35056;SDS011;21241;51.828;19.574;2022-08-07T05:06:04;5.80;;;4.90;;
35056;SDS011;21241;51.828;19.574;2022-08-07T05:08:54;6.80;;;5.10;;
35056;SDS011;21241;51.828;19.574;2022-08-07T05:11:39;5.30;;;4.50;;
35056;SDS011;21241;51.828;19.574;2022-08-07T05:14:31;5.60;;;5.00;;
35056;SDS011;21241;51.828;19.574;2022-08-07T05:17:23;5.80;;;4.80;;
35056;SDS011;21241;51.828;19.574;2022-08-07T05:20:13;5.20;;;4.60;;
35056;SDS011;21241;51.828;19.574;2022-08-07T05:22:45;4.50;;;4.10;;
35056;SDS011;21241;51.828;19.574;2022-08-07T05:25:16;6.80;;;5.10;;
35056;SDS011;21241;51.828;19.574;2022-08-07T05:28:03;4.60;;;4.30;;
35056;SDS011;21241;51.828;19.574;2022-08-07T05:30:50;5.00;;;4.60;;
35056;SDS011;21241;51.828;19.574;2022-08-07T05:33:19;5.90;;;5.10;;
35056;SDS011;21241;51.828;19.574;2022-08-07T05:35:49;5.70;;;5.10;;
35056;SDS011;21241;51.828;19.574;2022-08-07T05:38:19;6.30;;;5.50;;
35056;SDS011;21241;51.828;19.574;2022-08-07T05:41:11;5.90;;;5.40;;
35056;SDS011;21241;51.828;19.574;2022-08-07T05:43:45;6.90;;;5.50;;
35056;SDS011;21241;51.828;19.574;2022-08-07T05:46:35;6.10;;;4.90;;
35056;SDS011;21241;51.828;19.574;2022-08-07T05:49:06;7.20;;;4.40;;
35056;SDS011;21241;51.828;19.574;2022-08-07T05:51:41;5.20;;;4.30;;
35056;SDS011;21241;51.828;19.574;2022-08-07T05:54:15;5.10;;;4.20;;
35056;SDS011;21241;51.828;19.574;2022-08-07T05:57:04;4.20;;;3.80;;
35056;SDS011;21241;51.828;19.574;2022-08-07T05:59:37;4.90;;;3.30;;
35056;SDS011;21241;51.828;19.574;2022-08-07T06:02:29;4.00;;;3.80;;
35056;SDS011;21241;51.828;19.574;2022-08-07T06:05:09;9.00;;;3.20;;
35056;SDS011;21241;51.828;19.574;2022-08-07T06:07:45;3.60;;;3.20;;
35056;SDS011;21241;51.828;19.574;2022-08-07T06:10:37;3.00;;;2.80;;
35056;SDS011;21241;51.828;19.574;2022-08-07T06:13:06;3.60;;;2.90;;
35056;SDS011;21241;51.828;19.574;2022-08-07T06:15:40;5.60;;;4.00;;
35056;SDS011;21241;51.828;19.574;2022-08-07T06:18:12;4.20;;;3.40;;
35056;SDS011;21241;51.828;19.574;2022-08-07T06:20:44;2.90;;;2.60;;
35056;SDS011;21241;51.828;19.574;2022-08-07T06:23:34;8.00;;;2.90;;
35056;SDS011;21241;51.828;19.574;2022-08-07T06:26:23;7.20;;;3.00;;
35056;SDS011;21241;51.828;19.574;2022-08-07T06:28:55;5.20;;;2.80;;
35056;SDS011;21241;51.828;19.574;2022-08-07T06:31:28;2.50;;;2.30;;
35056;SDS011;21241;51.828;19.574;2022-08-07T06:34:16;3.80;;;2.40;;
35056;SDS011;21241;51.828;19.574;2022-08-07T06:36:50;4.20;;;2.90;;
35056;SDS011;21241;51.828;19.574;2022-08-07T06:39:21;2.90;;;1.90;;
35056;SDS011;21241;51.828;19.574;2022-08-07T06:42:12;5.80;;;3.20;;
35056;SDS011;21241;51.828;19.574;2022-08-07T06:44:51;3.30;;;2.30;;
35056;SDS011;21241;51.828;19.574;2022-08-07T06:47:20;3.20;;;1.80;;
35056;SDS011;21241;51.828;19.574;2022-08-07T06:49:49;2.30;;;2.00;;
35056;SDS011;21241;51.828;19.574;2022-08-07T06:52:35;3.60;;;2.90;;
35056;SDS011;21241;51.828;19.574;2022-08-07T06:55:19;8.20;;;2.60;;
35056;SDS011;21241;51.828;19.574;2022-08-07T06:58:11;4.30;;;2.10;;
35056;SDS011;21241;51.828;19.574;2022-08-07T07:00:53;4.90;;;2.10;;
35056;SDS011;21241;51.828;19.574;2022-08-07T07:03:22;4.20;;;2.10;;
35056;SDS011;21241;51.828;19.574;2022-08-07T07:06:10;4.60;;;2.40;;
35056;SDS011;21241;51.828;19.574;2022-08-07T07:08:38;5.00;;;2.00;;
35056;SDS011;21241;51.828;19.574;2022-08-07T07:11:13;2.10;;;1.90;;
35056;SDS011;21241;51.828;19.574;2022-08-07T07:14:01;2.70;;;1.40;;
35056;SDS011;21241;51.828;19.574;2022-08-07T07:16:30;3.40;;;1.40;;
35056;SDS011;21241;51.828;19.574;2022-08-07T07:19:18;2.60;;;1.60;;
35056;SDS011;21241;51.828;19.574;2022-08-07T07:22:08;4.20;;;2.50;;
35056;SDS011;21241;51.828;19.574;2022-08-07T07:24:56;2.20;;;1.90;;
35056;SDS011;21241;51.828;19.574;2022-08-07T07:27:56;2.70;;;1.80;;
35056;SDS011;21241;51.828;19.574;2022-08-07T07:30:31;4.50;;;2.20;;
35056;SDS011;21241;51.828;19.574;2022-08-07T07:33:10;2.60;;;1.80;;
35056;SDS011;21241;51.828;19.574;2022-08-07T07:35:41;3.60;;;1.90;;
35056;SDS011;21241;51.828;19.574;2022-08-07T07:38:31;2.80;;;1.90;;
35056;SDS011;21241;51.828;19.574;2022-08-07T07:41:02;5.50;;;2.00;;
35056;SDS011;21241;51.828;19.574;2022-08-07T07:43:37;2.40;;;1.80;;
35056;SDS011;21241;51.828;19.574;2022-08-07T07:46:29;2.70;;;1.70;;
35056;SDS011;21241;51.828;19.574;2022-08-07T07:49:18;2.30;;;1.70;;
35056;SDS011;21241;51.828;19.574;2022-08-07T07:52:07;2.80;;;1.80;;
35056;SDS011;21241;51.828;19.574;2022-08-07T07:54:35;3.90;;;1.80;;
35056;SDS011;21241;51.828;19.574;2022-08-07T07:57:06;2.80;;;1.70;;
35056;SDS011;21241;51.828;19.574;2022-08-07T07:59:37;2.30;;;1.90;;
35056;SDS011;21241;51.828;19.574;2022-08-07T08:02:20;2.30;;;1.40;;
35056;SDS011;21241;51.828;19.574;2022-08-07T08:05:09;1.70;;;1.40;;
35056;SDS011;21241;51.828;19.574;2022-08-07T08:07:42;3.10;;;1.70;;
35056;SDS011;21241;51.828;19.574;2022-08-07T08:10:27;2.00;;;1.30;;
35056;SDS011;21241;51.828;19.574;2022-08-07T08:13:09;2.10;;;1.50;;
35056;SDS011;21241;51.828;19.574;2022-08-07T08:15:42;2.50;;;1.20;;
35056;SDS011;21241;51.828;19.574;2022-08-07T08:18:29;1.90;;;1.30;;
35056;SDS011;21241;51.828;19.574;2022-08-07T08:21:05;2.90;;;1.30;;
35056;SDS011;21241;51.828;19.574;2022-08-07T08:24:14;1.80;;;1.00;;
35056;SDS011;21241;51.828;19.574;2022-08-07T08:27:14;1.40;;;1.20;;
35056;SDS011;21241;51.828;19.574;2022-08-07T08:29:45;2.30;;;1.40;;
35056;SDS011;21241;51.828;19.574;2022-08-07T08:32:25;1.90;;;1.40;;
35056;SDS011;21241;51.828;19.574;2022-08-07T08:35:05;2.20;;;1.30;;
35056;SDS011;21241;51.828;19.574;2022-08-07T08:37:43;1.80;;;1.20;;
35056;SDS011;21241;51.828;19.574;2022-08-07T08:40:33;3.00;;;1.30;;
35056;SDS011;21241;51.828;19.574;2022-08-07T08:43:53;1.60;;;1.30;;
35056;SDS011;21241;51.828;19.574;2022-08-07T08:46:32;3.40;;;1.70;;
35056;SDS011;21241;51.828;19.574;2022-08-07T08:49:17;3.10;;;1.50;;
35056;SDS011;21241;51.828;19.574;2022-08-07T08:52:10;1.70;;;1.00;;
35056;SDS011;21241;51.828;19.574;2022-08-07T08:57:44;2.50;;;1.20;;
35056;SDS011;21241;51.828;19.574;2022-08-07T09:00:18;4.00;;;1.40;;
35056;SDS011;21241;51.828;19.574;2022-08-07T09:06:16;2.00;;;1.30;;
35056;SDS011;21241;51.828;19.574;2022-08-07T09:08:58;1.20;;;1.10;;
35056;SDS011;21241;51.828;19.574;2022-08-07T09:11:55;1.60;;;1.00;;
35056;SDS011;21241;51.828;19.574;2022-08-07T09:23:44;2.00;;;1.30;;
35056;SDS011;21241;51.828;19.574;2022-08-07T09:26:43;2.00;;;1.50;;
35056;SDS011;21241;51.828;19.574;2022-08-07T09:38:44;1.70;;;1.50;;
35056;SDS011;21241;51.828;19.574;2022-08-07T09:41:33;2.30;;;1.30;;
35056;SDS011;21241;51.828;19.574;2022-08-07T09:44:29;1.50;;;1.20;;
35056;SDS011;21241;51.828;19.574;2022-08-07T09:48:01;1.30;;;0.80;;
35056;SDS011;21241;51.828;19.574;2022-08-07T09:51:02;1.90;;;0.90;;
35056;SDS011;21241;51.828;19.574;2022-08-07T09:53:54;1.50;;;1.30;;
35056;SDS011;21241;51.828;19.574;2022-08-07T09:59:09;3.80;;;1.00;;
35056;SDS011;21241;51.828;19.574;2022-08-07T10:04:23;1.60;;;1.10;;
35056;SDS011;21241;51.828;19.574;2022-08-07T10:19:21;1.10;;;1.00;;
35056;SDS011;21241;51.828;19.574;2022-08-07T10:27:24;1.50;;;1.20;;
35056;SDS011;21241;51.828;19.574;2022-08-07T10:30:14;1.10;;;0.90;;
35056;SDS011;21241;51.828;19.574;2022-08-07T10:35:30;2.00;;;1.30;;
35056;SDS011;21241;51.828;19.574;2022-08-07T10:44:22;1.40;;;0.70;;
35056;SDS011;21241;51.828;19.574;2022-08-07T10:47:23;2.50;;;1.10;;
35056;SDS011;21241;51.828;19.574;2022-08-07T10:59:14;2.40;;;1.60;;
35056;SDS011;21241;51.828;19.574;2022-08-07T11:02:10;2.60;;;1.10;;
35056;SDS011;21241;51.828;19.574;2022-08-07T11:05:12;1.00;;;0.90;;
35056;SDS011;21241;51.828;19.574;2022-08-07T11:13:31;1.10;;;0.60;;
35056;SDS011;21241;51.828;19.574;2022-08-07T11:17:09;1.60;;;1.10;;
35056;SDS011;21241;51.828;19.574;2022-08-07T11:22:23;1.50;;;1.10;;
35056;SDS011;21241;51.828;19.574;2022-08-07T11:28:27;1.30;;;0.90;;
35056;SDS011;21241;51.828;19.574;2022-08-07T11:31:02;2.10;;;1.00;;
35056;SDS011;21241;51.828;19.574;2022-08-07T11:33:43;0.80;;;0.80;;
35056;SDS011;21241;51.828;19.574;2022-08-07T11:45:07;1.40;;;1.00;;
35056;SDS011;21241;51.828;19.574;2022-08-07T11:50:34;2.00;;;0.80;;
35056;SDS011;21241;51.828;19.574;2022-08-07T11:53:33;2.00;;;0.90;;
35056;SDS011;21241;51.828;19.574;2022-08-07T11:56:34;1.70;;;1.30;;
35056;SDS011;21241;51.828;19.574;2022-08-07T11:59:32;4.20;;;1.30;;
35056;SDS011;21241;51.828;19.574;2022-08-07T12:05:23;3.10;;;1.00;;
35056;SDS011;21241;51.828;19.574;2022-08-07T12:08:20;1.10;;;1.00;;
35056;SDS011;21241;51.828;19.574;2022-08-07T12:16:20;4.80;;;1.60;;
35056;SDS011;21241;51.828;19.574;2022-08-07T12:21:56;1.40;;;1.10;;
35056;SDS011;21241;51.828;19.574;2022-08-07T12:25:11;2.20;;;1.00;;
35056;SDS011;21241;51.828;19.574;2022-08-07T12:28:27;2.60;;;1.30;;
35056;SDS011;21241;51.828;19.574;2022-08-07T12:31:39;1.20;;;1.10;;
35056;SDS011;21241;51.828;19.574;2022-08-07T12:34:30;1.10;;;1.00;;
35056;SDS011;21241;51.828;19.574;2022-08-07T12:37:00;2.30;;;1.30;;
35056;SDS011;21241;51.828;19.574;2022-08-07T12:39:35;1.10;;;0.90;;
35056;SDS011;21241;51.828;19.574;2022-08-07T12:42:11;2.00;;;1.10;;
35056;SDS011;21241;51.828;19.574;2022-08-07T12:44:40;2.50;;;1.70;;
35056;SDS011;21241;51.828;19.574;2022-08-07T12:47:59;1.20;;;0.90;;
35056;SDS011;21241;51.828;19.574;2022-08-07T12:53:24;1.10;;;1.00;;
35056;SDS011;21241;51.828;19.574;2022-08-07T12:56:24;1.40;;;1.00;;
35056;SDS011;21241;51.828;19.574;2022-08-07T12:58:55;2.10;;;1.50;;
35056;SDS011;21241;51.828;19.574;2022-08-07T13:01:34;1.40;;;1.30;;
35056;SDS011;21241;51.828;19.574;2022-08-07T13:07:16;1.50;;;1.40;;
35056;SDS011;21241;51.828;19.574;2022-08-07T13:10:35;2.50;;;1.40;;
35056;SDS011;21241;51.828;19.574;2022-08-07T13:19:11;1.90;;;1.50;;
35056;SDS011;21241;51.828;19.574;2022-08-07T13:28:28;2.40;;;1.90;;
35056;SDS011;21241;51.828;19.574;2022-08-07T13:31:06;2.00;;;1.90;;
35056;SDS011;21241;51.828;19.574;2022-08-07T13:36:48;2.30;;;2.10;;
35056;SDS011;21241;51.828;19.574;2022-08-07T13:39:32;2.30;;;2.20;;
35056;SDS011;21241;51.828;19.574;2022-08-07T13:42:23;2.30;;;2.10;;
35056;SDS011;21241;51.828;19.574;2022-08-07T13:44:53;2.20;;;2.10;;
35056;SDS011;21241;51.828;19.574;2022-08-07T13:48:33;2.80;;;2.50;;
35056;SDS011;21241;51.828;19.574;2022-08-07T13:55:47;2.30;;;2.20;;
35056;SDS011;21241;51.828;19.574;2022-08-07T13:59:19;3.90;;;2.50;;
35056;SDS011;21241;51.828;19.574;2022-08-07T14:02:25;2.70;;;2.50;;
35056;SDS011;21241;51.828;19.574;2022-08-07T14:05:19;2.30;;;2.20;;
35056;SDS011;21241;51.828;19.574;2022-08-07T14:07:52;2.90;;;2.20;;
35056;SDS011;21241;51.828;19.574;2022-08-07T14:10:33;1.90;;;1.80;;
35056;SDS011;21241;51.828;19.574;2022-08-07T14:13:13;1.80;;;1.70;;
35056;SDS011;21241;51.828;19.574;2022-08-07T14:15:50;2.20;;;2.00;;
35056;SDS011;21241;51.828;19.574;2022-08-07T14:18:26;2.50;;;2.30;;
35056;SDS011;21241;51.828;19.574;2022-08-07T14:27:03;1.40;;;1.40;;
35056;SDS011;21241;51.828;19.574;2022-08-07T14:29:54;1.60;;;1.50;;
35056;SDS011;21241;51.828;19.574;2022-08-07T14:32:39;2.30;;;1.80;;
35056;SDS011;21241;51.828;19.574;2022-08-07T14:35:21;2.30;;;1.70;;
35056;SDS011;21241;51.828;19.574;2022-08-07T14:38:11;1.60;;;1.50;;
35056;SDS011;21241;51.828;19.574;2022-08-07T14:41:04;3.10;;;2.50;;
35056;SDS011;21241;51.828;19.574;2022-08-07T14:43:42;2.20;;;2.00;;
35056;SDS011;21241;51.828;19.574;2022-08-07T14:46:31;2.30;;;2.20;;
35056;SDS011;21241;51.828;19.574;2022-08-07T14:48:59;2.90;;;1.50;;
35056;SDS011;21241;51.828;19.574;2022-08-07T14:51:48;1.30;;;1.20;;
35056;SDS011;21241;51.828;19.574;2022-08-07T14:54:32;1.80;;;1.70;;
35056;SDS011;21241;51.828;19.574;2022-08-07T14:57:12;2.00;;;1.30;;
35056;SDS011;21241;51.828;19.574;2022-08-07T14:59:46;2.00;;;1.80;;
35056;SDS011;21241;51.828;19.574;2022-08-07T15:02:33;2.60;;;1.20;;
35056;SDS011;21241;51.828;19.574;2022-08-07T15:05:05;1.90;;;1.30;;
35056;SDS011;21241;51.828;19.574;2022-08-07T15:07:49;1.50;;;1.40;;
35056;SDS011;21241;51.828;19.574;2022-08-07T15:10:21;1.30;;;1.20;;
35056;SDS011;21241;51.828;19.574;2022-08-07T15:13:15;1.20;;;1.00;;
35056;SDS011;21241;51.828;19.574;2022-08-07T15:15:46;1.10;;;1.00;;
35056;SDS011;21241;51.828;19.574;2022-08-07T15:18:20;1.50;;;1.00;;
35056;SDS011;21241;51.828;19.574;2022-08-07T15:21:17;1.10;;;1.00;;
35056;SDS011;21241;51.828;19.574;2022-08-07T15:24:18;1.60;;;0.90;;
35056;SDS011;21241;51.828;19.574;2022-08-07T15:27:08;1.40;;;1.30;;
35056;SDS011;21241;51.828;19.574;2022-08-07T15:29:52;2.40;;;1.10;;
35056;SDS011;21241;51.828;19.574;2022-08-07T15:32:40;1.30;;;1.00;;
35056;SDS011;21241;51.828;19.574;2022-08-07T15:35:29;1.90;;;1.20;;
35056;SDS011;21241;51.828;19.574;2022-08-07T15:38:19;1.50;;;1.10;;
35056;SDS011;21241;51.828;19.574;2022-08-07T15:41:05;1.60;;;1.00;;
35056;SDS011;21241;51.828;19.574;2022-08-07T15:44:02;2.00;;;1.00;;
35056;SDS011;21241;51.828;19.574;2022-08-07T15:46:33;1.00;;;1.00;;
35056;SDS011;21241;51.828;19.574;2022-08-07T15:49:16;1.20;;;1.10;;
35056;SDS011;21241;51.828;19.574;2022-08-07T15:51:44;2.00;;;1.10;;
35056;SDS011;21241;51.828;19.574;2022-08-07T15:54:25;1.40;;;1.10;;
35056;SDS011;21241;51.828;19.574;2022-08-07T15:57:06;0.90;;;0.90;;
35056;SDS011;21241;51.828;19.574;2022-08-07T15:59:57;2.80;;;0.80;;
35056;SDS011;21241;51.828;19.574;2022-08-07T16:02:32;2.40;;;1.40;;
35056;SDS011;21241;51.828;19.574;2022-08-07T16:05:05;1.60;;;1.50;;
35056;SDS011;21241;51.828;19.574;2022-08-07T16:08:02;2.00;;;1.00;;
35056;SDS011;21241;51.828;19.574;2022-08-07T16:11:03;0.70;;;0.70;;
35056;SDS011;21241;51.828;19.574;2022-08-07T16:19:55;1.10;;;1.00;;
35056;SDS011;21241;51.828;19.574;2022-08-07T16:31:39;1.30;;;1.20;;
35056;SDS011;21241;51.828;19.574;2022-08-07T16:34:28;0.90;;;0.90;;
35056;SDS011;21241;51.828;19.574;2022-08-07T16:37:17;2.30;;;1.00;;
35056;SDS011;21241;51.828;19.574;2022-08-07T16:58:53;1.70;;;0.80;;
35056;SDS011;21241;51.828;19.574;2022-08-07T17:01:53;1.50;;;1.10;;
35056;SDS011;21241;51.828;19.574;2022-08-07T17:04:36;1.40;;;1.00;;
35056;SDS011;21241;51.828;19.574;2022-08-07T17:07:31;2.30;;;1.30;;
35056;SDS011;21241;51.828;19.574;2022-08-07T17:16:02;1.50;;;1.40;;
35056;SDS011;21241;51.828;19.574;2022-08-07T17:18:56;2.20;;;1.30;;
35056;SDS011;21241;51.828;19.574;2022-08-07T17:21:44;1.50;;;1.30;;
35056;SDS011;21241;51.828;19.574;2022-08-07T17:24:26;1.40;;;1.10;;
35056;SDS011;21241;51.828;19.574;2022-08-07T17:27:06;1.30;;;1.20;;
35056;SDS011;21241;51.828;19.574;2022-08-07T17:33:01;2.40;;;1.40;;
35056;SDS011;21241;51.828;19.574;2022-08-07T17:38:59;1.50;;;1.40;;
35056;SDS011;21241;51.828;19.574;2022-08-07T17:41:47;1.30;;;1.20;;
35056;SDS011;21241;51.828;19.574;2022-08-07T17:44:35;5.30;;;1.20;;
35056;SDS011;21241;51.828;19.574;2022-08-07T17:47:17;1.80;;;1.30;;
35056;SDS011;21241;51.828;19.574;2022-08-07T17:53:07;1.50;;;1.20;;
35056;SDS011;21241;51.828;19.574;2022-08-07T17:56:01;1.60;;;1.40;;
35056;SDS011;21241;51.828;19.574;2022-08-07T17:58:43;2.40;;;2.20;;
35056;SDS011;21241;51.828;19.574;2022-08-07T18:01:24;2.00;;;1.40;;
35056;SDS011;21241;51.828;19.574;2022-08-07T18:06:47;4.20;;;1.60;;
35056;SDS011;21241;51.828;19.574;2022-08-07T18:09:48;3.50;;;1.90;;
35056;SDS011;21241;51.828;19.574;2022-08-07T18:12:40;4.10;;;2.00;;
35056;SDS011;21241;51.828;19.574;2022-08-07T18:15:25;2.70;;;1.40;;
35056;SDS011;21241;51.828;19.574;2022-08-07T18:18:00;2.00;;;1.70;;
35056;SDS011;21241;51.828;19.574;2022-08-07T18:21:05;2.90;;;1.70;;
35056;SDS011;21241;51.828;19.574;2022-08-07T18:26:47;2.40;;;2.10;;
35056;SDS011;21241;51.828;19.574;2022-08-07T18:32:42;3.50;;;2.90;;
35056;SDS011;21241;51.828;19.574;2022-08-07T18:38:40;2.60;;;1.80;;
35056;SDS011;21241;51.828;19.574;2022-08-07T18:57:05;4.10;;;2.30;;
35056;SDS011;21241;51.828;19.574;2022-08-07T19:02:42;2.70;;;2.50;;
35056;SDS011;21241;51.828;19.574;2022-08-07T19:05:24;3.60;;;3.00;;
35056;SDS011;21241;51.828;19.574;2022-08-07T19:08:18;3.50;;;2.50;;
35056;SDS011;21241;51.828;19.574;2022-08-07T19:10:50;3.40;;;2.90;;
35056;SDS011;21241;51.828;19.574;2022-08-07T19:17:02;2.80;;;2.50;;
35056;SDS011;21241;51.828;19.574;2022-08-07T19:19:40;3.20;;;2.60;;
35056;SDS011;21241;51.828;19.574;2022-08-07T19:25:15;4.20;;;3.00;;
35056;SDS011;21241;51.828;19.574;2022-08-07T19:28:09;2.50;;;2.30;;
35056;SDS011;21241;51.828;19.574;2022-08-07T19:34:21;5.10;;;2.80;;
35056;SDS011;21241;51.828;19.574;2022-08-07T19:37:05;2.80;;;2.60;;
35056;SDS011;21241;51.828;19.574;2022-08-07T19:39:46;3.20;;;2.90;;
35056;SDS011;21241;51.828;19.574;2022-08-07T19:42:28;3.90;;;2.30;;
35056;SDS011;21241;51.828;19.574;2022-08-07T19:45:02;4.40;;;3.20;;
35056;SDS011;21241;51.828;19.574;2022-08-07T19:47:36;4.10;;;2.90;;
35056;SDS011;21241;51.828;19.574;2022-08-07T19:50:08;4.10;;;2.50;;
35056;SDS011;21241;51.828;19.574;2022-08-07T19:52:56;3.00;;;2.80;;
35056;SDS011;21241;51.828;19.574;2022-08-07T19:55:25;3.00;;;2.80;;